To NAV CANADA Home Page Login to a new session Search on AWWS site Feedback and Comments Disclaimer Vers la page française équivalente Tips FAQ What's new on the site To the Forecasts and Observations / NOTAM section To "File a Flight Plan" website Publications and other links Update of the User's profile FIC Telephone Numbers My Weather Data Folder Route Weather Data Regional Weather Data Local Weather Data To the Forecasts and Observations / NOTAM section
Request Generated 04/30/2016 at 22:36:35 UTC . Weather information available at that time is displayed.

METAR/TAF

EARLTON/EARLTON (TIMISKAMING REGIONAL)/ON    (show WxCam)

METAR CYXR 302200Z AUTO 01013G18KT 9SM BKN070 BKN140 14/M02 A3021 RMK
SLP240=
METAR CYXR 302100Z AUTO 02009G18KT 9SM SCT070 BKN110 14/M02 A3019 RMK
SLP235=
METAR CYXR 302000Z AUTO 03007G15KT 350V080 9SM SCT065 SCT100 SCT140
14/M02 A3021 RMK SLP241=

TAF CYXR 301738Z 3018/3024 07007G17KT P6SM SCT120 TEMPO 3018/3024
BKN120
RMK FCST BASED ON AUTO OBS. NXT FCST WILL BE ISSUED AT 011145Z=
Your time UTC time
Weather data provided by Environment Canada and NAV CANADA